Time;durP1;ratioP1;P1;durP2;ratioP2;P2;SDS_P1;SDS_P2;PMS_P1;PMS_P2;Temp;Humidity;BMP_temperature;BMP_pressure;BME280_temperature;BME280_humidity;BME280_pressure;Samples;Min_cycle;Max_cycle;Signal;HPM_P1;HPM_P2
2023/08/28 00:01:56;;;;;;;2.08;1.10;;;;;;;13.89;100.00;100146.03;5207366;28;20033;-76
2023/08/28 00:04:26;;;;;;;2.50;1.17;;;;;;;13.92;100.00;100151.09;5216007;28;20036;-76
2023/08/28 00:06:57;;;;;;;4.25;1.27;;;;;;;13.91;100.00;100152.88;5216751;28;20025;-76
2023/08/28 00:09:27;;;;;;;4.93;1.20;;;;;;;13.99;100.00;100157.69;5214472;28;20029;-77
2023/08/28 00:11:57;;;;;;;3.40;1.65;;;;;;;13.97;100.00;100154.31;5217692;28;20033;-76
2023/08/28 00:14:28;;;;;;;2.40;1.50;;;;;;;14.06;100.00;100152.00;5213931;28;20578;-76
2023/08/28 00:16:58;;;;;;;8.25;2.05;;;;;;;14.01;100.00;100155.81;5215937;28;20514;-77
2023/08/28 00:19:28;;;;;;;4.18;1.40;;;;;;;14.08;100.00;100162.44;5214314;28;20039;-77
2023/08/28 00:21:59;;;;;;;2.70;1.52;;;;;;;14.08;100.00;100157.19;5212173;28;20063;-77
2023/08/28 00:24:29;;;;;;;3.85;1.67;;;;;;;14.11;100.00;100149.97;5218333;28;20115;-76
2023/08/28 00:26:59;;;;;;;4.03;1.50;;;;;;;14.07;100.00;100152.88;5213320;28;20491;-77
2023/08/28 00:29:29;;;;;;;4.60;1.45;;;;;;;14.13;100.00;100152.53;5216095;28;20051;-77
2023/08/28 00:32:00;;;;;;;3.75;1.42;;;;;;;14.18;100.00;100153.13;5212773;28;20557;-76
2023/08/28 00:34:30;;;;;;;2.25;1.30;;;;;;;14.20;100.00;100167.88;5210032;28;20308;-76
2023/08/28 00:37:00;;;;;;;2.88;1.50;;;;;;;14.19;100.00;100167.97;5210249;28;20036;-77
2023/08/28 00:39:31;;;;;;;3.78;1.38;;;;;;;14.28;100.00;100170.09;5214107;28;20031;-77
2023/08/28 00:42:01;;;;;;;4.47;1.73;;;;;;;14.22;100.00;100173.06;5212758;28;20032;-76
2023/08/28 00:44:32;;;;;;;7.65;1.80;;;;;;;14.23;100.00;100161.63;5216156;28;20057;-77
2023/08/28 00:47:05;;;;;;;6.93;1.60;;;;;;;14.23;100.00;100161.63;5210600;28;20470;-77
2023/08/28 00:49:35;;;;;;;4.20;1.50;;;;;;;14.27;100.00;100163.13;5214353;28;20024;-76
2023/08/28 00:52:06;;;;;;;2.88;1.50;;;;;;;14.13;100.00;100163.03;5211546;28;20139;-76
2023/08/28 00:54:40;;;;;;;7.30;1.55;;;;;;;14.16;100.00;100165.50;5214213;28;20039;-76
2023/08/28 00:57:14;;;;;;;4.95;2.00;;;;;;;14.08;100.00;100159.81;5213766;28;20029;-74
2023/08/28 00:59:44;;;;;;;3.20;1.88;;;;;;;13.99;100.00;100162.94;5213487;28;20057;-74
2023/08/28 01:02:15;;;;;;;4.97;2.03;;;;;;;13.95;100.00;100161.44;5212862;28;20124;-77
2023/08/28 01:04:45;;;;;;;5.45;2.45;;;;;;;13.99;100.00;100149.81;5212660;28;20033;-76
2023/08/28 01:07:25;;;;;;;5.53;2.20;;;;;;;13.93;100.00;100158.06;5213257;28;20053;-77
2023/08/28 01:10:26;;;;;;;5.18;2.20;;;;;;;13.84;100.00;100158.53;5291515;22;20053;-71
2023/08/28 01:13:07;;;;;;;5.13;2.00;;;;;;;13.79;100.00;100152.72;5207469;28;20029;-71
2023/08/28 01:15:39;;;;;;;4.63;1.67;;;;;;;13.64;100.00;100158.81;5206004;28;20384;-71
2023/08/28 01:18:10;;;;;;;4.38;1.80;;;;;;;13.63;100.00;100154.47;5210121;28;20056;-71
2023/08/28 01:20:42;;;;;;;5.35;2.25;;;;;;;13.59;100.00;100158.22;5192650;28;20476;-71
2023/08/28 01:23:27;;;;;;;3.90;1.83;;;;;;;13.49;100.00;100159.63;5192151;28;20032;-71
2023/08/28 01:25:58;;;;;;;5.50;1.47;;;;;;;13.57;100.00;100170.59;5192621;28;20025;-71
2023/08/28 01:28:29;;;;;;;3.92;1.80;;;;;;;13.33;100.00;100171.88;5189821;28;20338;-71
2023/08/28 01:30:59;;;;;;;5.35;1.65;;;;;;;13.42;100.00;100166.16;5186324;28;20040;-71
2023/08/28 01:33:31;;;;;;;4.07;1.50;;;;;;;13.36;100.00;100169.09;5194255;28;20471;-71
2023/08/28 01:36:25;;;;;;;3.50;1.90;;;;;;;13.40;100.00;100173.25;5192148;28;20116;-71
2023/08/28 01:39:04;;;;;;;3.05;1.58;;;;;;;13.52;100.00;100169.97;5190491;28;20034;-71
2023/08/28 01:41:37;;;;;;;5.07;2.08;;;;;;;13.61;100.00;100177.34;5191478;28;20454;-71
2023/08/28 01:44:08;;;;;;;3.15;1.77;;;;;;;13.67;100.00;100179.63;5186552;28;20804;-71
2023/08/28 01:46:39;;;;;;;4.95;1.70;;;;;;;13.71;100.00;100182.03;5193991;28;20045;-71
2023/08/28 01:49:09;;;;;;;5.50;1.92;;;;;;;13.52;100.00;100180.47;5191819;28;20133;-71
2023/08/28 01:51:41;;;;;;;6.28;2.00;;;;;;;13.49;100.00;100170.13;5190051;28;20112;-71
2023/08/28 01:54:12;;;;;;;3.50;1.98;;;;;;;13.43;100.00;100162.59;5189403;28;20557;-71
2023/08/28 01:56:42;;;;;;;4.00;1.70;;;;;;;13.34;100.00;100163.06;5191665;28;20155;-71
2023/08/28 01:59:13;;;;;;;5.10;1.80;;;;;;;13.39;100.00;100166.31;5191867;28;20057;-71
2023/08/28 02:01:43;;;;;;;6.85;1.73;;;;;;;13.33;100.00;100161.38;5192453;28;20017;-71
2023/08/28 02:04:14;;;;;;;2.97;1.83;;;;;;;13.17;100.00;100165.72;5190282;28;20133;-71
2023/08/28 02:06:44;;;;;;;3.65;1.80;;;;;;;13.17;100.00;100171.84;5191641;28;20017;-69
2023/08/28 02:09:14;;;;;;;5.97;1.80;;;;;;;13.25;100.00;100169.66;5189105;28;20567;-71
2023/08/28 02:11:45;;;;;;;4.05;1.90;;;;;;;13.39;100.00;100166.31;5190730;28;20022;-70
2023/08/28 02:14:15;;;;;;;2.63;1.50;;;;;;;13.35;100.00;100159.50;5189958;28;20029;-71
2023/08/28 02:16:46;;;;;;;3.47;1.85;;;;;;;13.27;100.00;100154.66;5188950;28;20032;-70
2023/08/28 02:19:17;;;;;;;3.63;2.00;;;;;;;13.19;100.00;100158.63;5189119;28;20450;-71
2023/08/28 02:21:47;;;;;;;4.13;1.75;;;;;;;13.21;100.00;100162.03;5191465;28;20048;-70
2023/08/28 02:24:18;;;;;;;4.32;2.00;;;;;;;13.09;100.00;100154.81;5190677;28;20467;-71
2023/08/28 02:26:50;;;;;;;2.83;1.60;;;;;;;13.19;100.00;100154.25;5187030;28;20087;-69
2023/08/28 02:29:20;;;;;;;2.92;1.70;;;;;;;13.19;100.00;100149.00;5187711;28;20056;-70
2023/08/28 02:31:50;;;;;;;3.30;1.73;;;;;;;13.20;100.00;100165.59;5191738;28;20013;-70
2023/08/28 02:34:20;;;;;;;5.68;1.92;;;;;;;13.26;100.00;100160.03;5189627;28;20416;-70
2023/08/28 02:36:51;;;;;;;6.60;2.00;;;;;;;13.15;100.00;100168.47;5189673;28;20535;-71
2023/08/28 02:39:21;;;;;;;4.75;2.00;;;;;;;12.86;100.00;100165.63;5188733;28;20041;-70
2023/08/28 02:41:51;;;;;;;5.63;1.52;;;;;;;12.92;100.00;100152.19;5190726;28;20021;-71
2023/08/28 02:44:22;;;;;;;5.00;2.00;;;;;;;12.95;100.00;100148.59;5189409;28;20514;-70
2023/08/28 02:46:52;;;;;;;4.93;1.67;;;;;;;12.88;100.00;100146.25;5193022;28;20041;-71
2023/08/28 02:49:22;;;;;;;3.72;2.00;;;;;;;12.90;100.00;100161.91;5189982;28;20603;-70
2023/08/28 02:51:53;;;;;;;5.00;2.20;;;;;;;12.66;100.00;100167.56;5188454;28;20234;-71
2023/08/28 02:54:23;;;;;;;7.22;1.90;;;;;;;12.45;100.00;100185.19;5184960;28;20065;-70
2023/08/28 02:56:54;;;;;;;3.30;1.92;;;;;;;12.37;100.00;100176.88;5186232;28;20415;-71
2023/08/28 02:59:24;;;;;;;4.53;2.13;;;;;;;12.48;100.00;100174.53;5185723;28;20026;-71
2023/08/28 03:01:54;;;;;;;3.65;1.92;;;;;;;12.49;100.00;100178.03;5193552;28;20034;-71
2023/08/28 03:04:25;;;;;;;3.58;2.00;;;;;;;12.46;100.00;100180.81;5187268;28;20026;-71
2023/08/28 03:06:55;;;;;;;5.20;2.00;;;;;;;12.58;100.00;100188.03;5188124;28;20033;-71
2023/08/28 03:09:25;;;;;;;5.55;2.30;;;;;;;12.32;100.00;100193.75;5186419;28;20022;-71
2023/08/28 03:11:56;;;;;;;2.65;1.65;;;;;;;12.23;100.00;100205.50;5189251;28;20059;-71
2023/08/28 03:14:26;;;;;;;2.50;1.60;;;;;;;12.24;100.00;100198.47;5187073;28;20484;-71
2023/08/28 03:16:57;;;;;;;4.65;1.92;;;;;;;12.28;100.00;100202.69;5189965;28;20261;-71
2023/08/28 03:19:27;;;;;;;4.10;2.30;;;;;;;12.29;100.00;100215.69;5187623;28;20113;-71
2023/08/28 03:21:57;;;;;;;7.93;3.03;;;;;;;12.20;100.00;100226.63;5190338;28;20116;-71
2023/08/28 03:24:28;;;;;;;11.63;5.88;;;;;;;12.14;100.00;100237.38;5186597;28;20048;-71
2023/08/28 03:26:58;;;;;;;5.95;3.45;;;;;;;12.17;100.00;100234.63;5184031;28;20049;-71
2023/08/28 03:29:28;;;;;;;7.93;3.00;;;;;;;12.22;100.00;100237.88;5190049;28;20022;-71
2023/08/28 03:31:59;;;;;;;5.00;2.88;;;;;;;12.30;100.00;100238.34;5189630;28;20048;-71
2023/08/28 03:34:29;;;;;;;5.55;2.75;;;;;;;12.27;100.00;100237.66;5189064;28;20250;-71
2023/08/28 03:36:59;;;;;;;8.70;2.90;;;;;;;12.31;100.00;100242.66;5186900;28;20105;-70
2023/08/28 03:39:29;;;;;;;6.03;2.97;;;;;;;12.31;100.00;100226.94;5185728;28;20510;-71
2023/08/28 03:42:00;;;;;;;3.80;2.75;;;;;;;12.35;100.00;100220.66;5187534;28;20032;-71
2023/08/28 03:44:30;;;;;;;6.25;2.97;;;;;;;12.42;100.00;100210.69;5186398;28;20037;-70
2023/08/28 03:47:00;;;;;;;5.68;3.33;;;;;;;12.48;100.00;100210.41;5191605;28;20376;-71
2023/08/28 03:49:31;;;;;;;4.97;2.80;;;;;;;12.40;100.00;100205.53;5185467;28;20443;-71
2023/08/28 03:52:01;;;;;;;6.07;2.90;;;;;;;12.65;100.00;100199.94;5184511;28;20029;-71
2023/08/28 03:54:31;;;;;;;6.25;3.22;;;;;;;12.60;100.00;100196.72;5184873;28;20479;-71
2023/08/28 03:57:02;;;;;;;7.22;3.25;;;;;;;12.62;100.00;100190.44;5187751;28;20511;-71
2023/08/28 03:59:32;;;;;;;6.13;3.33;;;;;;;12.69;100.00;100193.63;5184391;28;20109;-71
2023/08/28 04:02:03;;;;;;;6.07;3.00;;;;;;;12.64;100.00;100195.63;5185812;28;20037;-70
2023/08/28 04:04:33;;;;;;;7.18;3.17;;;;;;;12.59;100.00;100184.50;5186051;28;20030;-71
2023/08/28 04:07:03;;;;;;;6.28;3.35;;;;;;;12.59;100.00;100189.75;5185785;28;20068;-71
2023/08/28 04:09:34;;;;;;;5.50;3.30;;;;;;;12.41;100.00;100188.03;5184286;28;20488;-71
2023/08/28 04:12:04;;;;;;;4.97;3.30;;;;;;;12.26;100.00;100184.41;5186775;28;20025;-71
2023/08/28 04:14:35;;;;;;;9.05;4.05;;;;;;;12.31;100.00;100178.94;5182015;28;20030;-70
2023/08/28 04:17:05;;;;;;;8.13;4.13;;;;;;;12.39;100.00;100185.50;5193008;28;20029;-71
2023/08/28 04:19:35;;;;;;;6.78;3.75;;;;;;;12.49;100.00;100181.47;5185086;28;20026;-71
2023/08/28 04:22:06;;;;;;;6.65;3.50;;;;;;;12.57;100.00;100188.97;5187077;28;20117;-71
2023/08/28 04:24:36;;;;;;;6.45;3.30;;;;;;;12.73;100.00;100201.25;5183029;28;20032;-71
2023/08/28 04:27:06;;;;;;;6.47;4.03;;;;;;;12.68;100.00;100191.91;5185221;28;20041;-71
2023/08/28 04:29:37;;;;;;;6.90;3.95;;;;;;;12.82;100.00;100184.22;5183514;28;20116;-71
2023/08/28 04:32:07;;;;;;;5.90;3.72;;;;;;;12.86;100.00;100178.72;5182960;28;20029;-71
2023/08/28 04:34:37;;;;;;;8.63;3.90;;;;;;;12.94;100.00;100176.59;5186595;28;20125;-71
2023/08/28 04:37:08;;;;;;;8.80;4.78;;;;;;;12.99;100.00;100174.56;5187184;28;20462;-71
2023/08/28 04:39:38;;;;;;;7.43;4.80;;;;;;;13.03;100.00;100174.34;5185262;28;20022;-71
2023/08/28 04:42:09;;;;;;;7.00;4.40;;;;;;;13.05;100.00;100172.47;5186796;28;20026;-71
2023/08/28 04:44:40;;;;;;;6.63;4.32;;;;;;;13.08;100.00;100177.56;5184108;28;20444;-71
2023/08/28 04:47:10;;;;;;;6.65;4.32;;;;;;;13.18;100.00;100173.53;5187718;28;20112;-70
2023/08/28 04:49:41;;;;;;;8.07;4.57;;;;;;;13.29;100.00;100176.47;5191526;28;20033;-71
2023/08/28 04:52:11;;;;;;;10.88;4.97;;;;;;;13.34;100.00;100184.06;5201921;28;20029;-71
2023/08/28 04:54:42;;;;;;;5.55;4.25;;;;;;;13.33;100.00;100180.59;5192760;28;20030;-71
2023/08/28 04:57:12;;;;;;;8.57;4.72;;;;;;;13.40;100.00;100176.72;5190170;28;20029;-70
2023/08/28 04:59:42;;;;;;;8.23;4.80;;;;;;;13.37;100.00;100187.38;5192002;28;20495;-71
2023/08/28 05:02:12;;;;;;;8.02;5.00;;;;;;;13.26;100.00;100186.25;5190446;28;20526;-71
2023/08/28 05:04:43;;;;;;;7.65;4.82;;;;;;;13.31;100.00;100190.34;5189095;28;20030;-71
2023/08/28 05:07:13;;;;;;;6.53;4.13;;;;;;;13.47;100.00;100199.09;5191693;28;20029;-70
2023/08/28 05:09:43;;;;;;;8.20;4.63;;;;;;;13.57;100.00;100191.59;5189318;28;20471;-71
2023/08/28 05:12:14;;;;;;;7.20;4.07;;;;;;;13.71;100.00;100204.81;5189392;28;20021;-71
2023/08/28 05:14:44;;;;;;;9.25;4.68;;;;;;;13.76;100.00;100197.53;5191658;28;20300;-71
2023/08/28 05:17:14;;;;;;;7.97;5.15;;;;;;;13.78;100.00;100201.75;5188972;28;20739;-71
2023/08/28 05:19:44;;;;;;;7.55;4.93;;;;;;;13.89;100.00;100214.31;5189584;28;20072;-71
2023/08/28 05:22:15;;;;;;;9.35;4.97;;;;;;;14.03;100.00;100211.75;5188495;28;20109;-71
2023/08/28 05:24:45;;;;;;;7.60;4.28;;;;;;;14.24;100.00;100208.84;5192032;28;20040;-71
2023/08/28 05:27:15;;;;;;;8.93;4.97;;;;;;;14.58;100.00;100207.78;5191032;28;20029;-71
2023/08/28 05:29:46;;;;;;;7.22;4.78;;;;;;;15.19;100.00;100207.53;5189208;28;20519;-71
2023/08/28 05:32:16;;;;;;;5.88;3.95;;;;;;;15.74;100.00;100207.69;5186683;28;20040;-71
2023/08/28 05:34:47;;;;;;;6.65;3.88;;;;;;;16.03;100.00;100204.91;5185850;28;20114;-70
2023/08/28 05:37:17;;;;;;;5.78;3.63;;;;;;;16.47;98.90;100199.44;5185444;28;20199;-71
2023/08/28 05:39:47;;;;;;;7.30;4.00;;;;;;;16.91;93.97;100195.53;5189678;28;20061;-69
2023/08/28 05:42:18;;;;;;;6.40;3.08;;;;;;;17.89;92.54;100192.16;5190237;28;20430;-71
2023/08/28 05:44:48;;;;;;;8.02;3.70;;;;;;;17.91;89.50;100193.75;5191017;28;20484;-69
2023/08/28 05:47:18;;;;;;;7.13;3.30;;;;;;;16.66;97.14;100200.78;5188758;28;20032;-71
2023/08/28 05:49:49;;;;;;;9.65;3.15;;;;;;;16.60;96.57;100195.91;5188088;28;20104;-70
2023/08/28 05:52:19;;;;;;;6.43;3.67;;;;;;;16.29;99.41;100200.59;5187679;28;20693;-71
2023/08/28 05:54:49;;;;;;;5.28;3.85;;;;;;;16.31;97.64;100191.66;5189031;28;20033;-71
2023/08/28 05:57:20;;;;;;;6.00;3.28;;;;;;;16.16;98.83;100190.00;5188485;28;20033;-71
2023/08/28 05:59:50;;;;;;;7.97;4.18;;;;;;;16.01;100.00;100183.06;5188626;28;20033;-71
2023/08/28 06:02:21;;;;;;;6.80;4.13;;;;;;;15.96;100.00;100185.16;5190382;28;20033;-71
2023/08/28 06:04:52;;;;;;;7.50;3.97;;;;;;;15.83;100.00;100192.13;5188882;28;20025;-71
2023/08/28 06:07:22;;;;;;;6.22;4.20;;;;;;;15.80;100.00;100197.59;5190152;28;20475;-71
2023/08/28 06:09:53;;;;;;;11.98;4.50;;;;;;;15.66;100.00;100194.13;5188066;28;20083;-71
2023/08/28 06:12:24;;;;;;;8.63;4.70;;;;;;;15.74;100.00;100191.88;5190919;28;20017;-71
2023/08/28 06:14:55;;;;;;;8.77;4.32;;;;;;;15.91;100.00;100191.66;5190326;28;20033;-71
2023/08/28 06:17:25;;;;;;;8.00;4.47;;;;;;;15.83;100.00;100188.66;5187272;28;20022;-71
2023/08/28 06:19:55;;;;;;;5.88;4.10;;;;;;;15.92;100.00;100188.94;5187846;28;20445;-71
2023/08/28 06:22:26;;;;;;;8.85;4.00;;;;;;;16.09;100.00;100177.31;5189479;28;20060;-71
2023/08/28 06:24:57;;;;;;;6.32;3.90;;;;;;;16.19;100.00;100173.16;5187421;28;20276;-71
2023/08/28 06:27:28;;;;;;;6.90;3.55;;;;;;;16.30;100.00;100165.34;5187214;28;20442;-72
2023/08/28 06:29:58;;;;;;;6.18;4.20;;;;;;;16.22;100.00;100160.59;5190355;28;20392;-71
2023/08/28 06:32:28;;;;;;;7.13;4.00;;;;;;;16.29;100.00;100159.25;5191977;28;20593;-71
2023/08/28 06:35:02;;;;;;;6.35;3.50;;;;;;;16.56;100.00;100156.63;5188920;28;20080;-71
2023/08/28 06:37:32;;;;;;;6.10;3.47;;;;;;;16.53;100.00;100157.66;5188248;28;20036;-71
2023/08/28 06:40:03;;;;;;;7.10;3.58;;;;;;;16.62;100.00;100159.69;5186518;28;20026;-71
2023/08/28 06:42:34;;;;;;;4.03;2.40;;;;;;;18.24;96.35;100150.75;5186951;28;20480;-71
2023/08/28 06:45:05;;;;;;;5.95;2.92;;;;;;;19.41;85.19;100156.69;5189511;28;20025;-72
2023/08/28 06:47:36;;;;;;;3.75;2.40;;;;;;;20.96;81.26;100145.56;5189327;28;20025;-71
2023/08/28 06:50:06;;;;;;;3.33;2.20;;;;;;;22.00;76.78;100149.69;5189021;28;20025;-72
2023/08/28 06:52:37;;;;;;;4.22;2.13;;;;;;;22.33;73.38;100162.63;5188048;28;20063;-71
2023/08/28 06:55:08;;;;;;;3.30;1.90;;;;;;;23.85;68.44;100164.13;5188535;28;20387;-72
2023/08/28 06:57:38;;;;;;;4.10;2.00;;;;;;;24.05;68.17;100167.53;5187479;28;20049;-72
2023/08/28 07:00:10;;;;;;;5.70;1.90;;;;;;;24.87;65.66;100173.44;5190031;28;20052;-72
2023/08/28 07:02:41;;;;;;;3.47;1.80;;;;;;;24.96;64.84;100175.16;5190646;28;20029;-72
2023/08/28 07:05:12;;;;;;;3.33;1.70;;;;;;;25.59;64.25;100178.44;5188223;28;20021;-72
2023/08/28 07:07:42;;;;;;;2.53;1.50;;;;;;;26.79;62.24;100182.41;5190212;28;20280;-71
2023/08/28 07:10:13;;;;;;;4.17;1.50;;;;;;;26.58;63.36;100179.38;5226780;23;20720;-77
2023/08/28 07:12:43;;;;;;;3.97;1.80;;;;;;;26.78;59.54;100192.28;5225671;28;20331;-76
2023/08/28 07:15:19;;;;;;;4.00;1.70;;;;;;;26.82;60.86;100188.28;5227246;28;20020;-77
2023/08/28 07:17:49;;;;;;;3.72;1.88;;;;;;;25.64;62.12;100187.69;5227664;28;20392;-75
2023/08/28 07:20:22;;;;;;;3.47;1.50;;;;;;;25.58;62.89;100182.13;5229395;28;20379;-77
2023/08/28 07:22:53;;;;;;;7.03;1.88;;;;;;;25.37;64.13;100190.56;5221284;28;20230;-77
2023/08/28 07:25:23;;;;;;;4.57;1.50;;;;;;;26.95;62.42;100193.16;5230745;28;20541;-77
2023/08/28 07:27:54;;;;;;;4.33;1.50;;;;;;;27.05;60.93;100215.28;5226960;28;20089;-76
2023/08/28 07:30:24;;;;;;;2.20;1.10;;;;;;;27.00;61.27;100218.47;5229336;28;20652;-76
2023/08/28 07:32:54;;;;;;;2.47;1.30;;;;;;;26.16;62.76;100217.94;5229194;28;20432;-76
2023/08/28 07:35:26;;;;;;;2.73;1.30;;;;;;;25.15;65.99;100227.66;5227882;28;20370;-77
2023/08/28 07:37:56;;;;;;;4.28;1.60;;;;;;;25.93;61.74;100215.00;5225932;28;20303;-77
2023/08/28 07:40:26;;;;;;;3.00;1.47;;;;;;;27.27;60.44;100207.41;5226848;28;20041;-76
2023/08/28 07:42:57;;;;;;;2.45;1.00;;;;;;;26.55;61.68;100208.38;5227083;28;20403;-76
2023/08/28 07:45:27;;;;;;;2.17;1.30;;;;;;;27.06;59.93;100212.44;5223510;28;20341;-77
2023/08/28 07:47:59;;;;;;;2.72;1.35;;;;;;;24.40;66.19;100219.19;5227200;28;20120;-76
2023/08/28 07:50:30;;;;;;;2.80;1.40;;;;;;;23.90;68.08;100225.91;5225277;28;20021;-76
2023/08/28 07:53:00;;;;;;;4.05;1.40;;;;;;;24.09;67.36;100215.19;5220643;28;20059;-76
2023/08/28 07:55:31;;;;;;;2.45;1.30;;;;;;;24.03;67.10;100220.28;5226872;28;20024;-76
2023/08/28 07:58:03;;;;;;;2.47;1.48;;;;;;;23.34;69.52;100217.09;5227796;28;20041;-75
2023/08/28 08:00:34;;;;;;;3.05;1.40;;;;;;;24.35;66.23;100216.13;5230158;28;20029;-76
2023/08/28 08:03:05;;;;;;;1.98;1.10;;;;;;;24.36;68.51;100217.00;5215078;28;20311;-76
2023/08/28 08:05:35;;;;;;;1.90;1.13;;;;;;;24.56;66.42;100214.03;5226642;28;20055;-76
2023/08/28 08:08:05;;;;;;;4.43;1.50;;;;;;;24.05;66.75;100216.44;5226501;28;20111;-76
2023/08/28 08:10:36;;;;;;;4.20;1.55;;;;;;;24.06;66.63;100219.97;5229105;28;20023;-77
2023/08/28 08:13:06;;;;;;;4.28;1.58;;;;;;;24.46;67.86;100215.94;5222011;28;20518;-76
2023/08/28 08:15:37;;;;;;;3.47;1.73;;;;;;;23.03;72.18;100220.88;5226071;28;20246;-75
2023/08/28 08:18:07;;;;;;;5.38;1.40;;;;;;;23.13;72.36;100213.75;5227348;28;20037;-77
2023/08/28 08:20:37;;;;;;;3.07;1.40;;;;;;;21.74;75.02;100215.84;5229158;28;20017;-75
2023/08/28 08:23:08;;;;;;;2.88;1.30;;;;;;;22.50;75.24;100208.13;5223494;28;20323;-76
2023/08/28 08:25:38;;;;;;;4.23;1.27;;;;;;;22.64;72.22;100204.22;5220172;28;20020;-75
2023/08/28 08:28:09;;;;;;;3.05;1.38;;;;;;;23.70;69.81;100196.78;5222321;28;20275;-76
2023/08/28 08:30:40;;;;;;;2.60;1.23;;;;;;;22.65;70.89;100203.22;5223877;28;20029;-76
2023/08/28 08:33:10;;;;;;;3.15;1.20;;;;;;;22.74;72.74;100205.88;5219514;28;20305;-75
2023/08/28 08:35:40;;;;;;;3.70;1.13;;;;;;;22.30;72.61;100201.06;5228261;28;20086;-77
2023/08/28 08:38:11;;;;;;;3.63;1.40;;;;;;;22.30;72.19;100219.69;5220554;28;20021;-76
2023/08/28 08:40:43;;;;;;;2.47;1.47;;;;;;;22.57;71.62;100219.91;5224200;28;20491;-76
2023/08/28 08:43:13;;;;;;;2.22;1.27;;;;;;;23.03;69.89;100222.72;5218657;28;20318;-76
2023/08/28 08:45:47;;;;;;;4.22;1.70;;;;;;;22.11;72.86;100234.78;5225130;28;20025;-76
2023/08/28 08:48:20;;;;;;;4.28;1.40;;;;;;;22.20;75.56;100228.63;5221008;28;20479;-76
2023/08/28 08:50:51;;;;;;;4.72;1.60;;;;;;;21.36;77.59;100236.03;5220174;28;20375;-75
2023/08/28 08:53:31;;;;;;;3.40;1.48;;;;;;;21.73;75.14;100242.59;5220341;28;20021;-75
2023/08/28 08:56:05;;;;;;;2.47;1.33;;;;;;;21.72;76.83;100241.75;5229752;28;20115;-76
2023/08/28 08:58:35;;;;;;;4.38;1.60;;;;;;;21.95;76.94;100231.78;5230425;28;20027;-76
2023/08/28 09:01:07;;;;;;;2.80;1.90;;;;;;;21.57;77.63;100243.03;5229594;28;20402;-75
2023/08/28 09:03:42;;;;;;;5.65;2.22;;;;;;;21.41;76.95;100233.84;5233404;28;20032;-73
2023/08/28 09:06:12;;;;;;;5.20;1.88;;;;;;;21.18;78.81;100240.25;5226469;28;20033;-75
2023/08/28 09:08:43;;;;;;;5.72;1.83;;;;;;;20.68;80.85;100241.78;5230735;28;20035;-75
2023/08/28 09:11:13;;;;;;;2.92;1.80;;;;;;;20.71;79.99;100232.75;5229547;28;20060;-76
2023/08/28 09:13:43;;;;;;;2.97;2.03;;;;;;;20.71;80.31;100246.03;5230895;28;20025;-76
2023/08/28 09:16:14;;;;;;;3.75;2.03;;;;;;;20.32;80.28;100248.41;5226284;28;20663;-76
2023/08/28 09:18:46;;;;;;;3.97;1.90;;;;;;;20.20;80.81;100249.38;5234037;28;20513;-76
2023/08/28 09:21:16;;;;;;;3.58;1.77;;;;;;;20.34;80.05;100236.72;5232632;28;20556;-76
2023/08/28 09:23:48;;;;;;;2.50;1.58;;;;;;;20.61;80.31;100234.44;5229313;28;20028;-76
2023/08/28 09:26:20;;;;;;;2.53;1.80;;;;;;;20.37;81.20;100224.97;5226280;28;20025;-76
2023/08/28 09:28:58;;;;;;;2.63;1.67;;;;;;;20.31;82.14;100223.66;5233443;28;20037;-73
2023/08/28 09:31:30;;;;;;;2.95;1.75;;;;;;;20.67;80.64;100218.00;5233712;28;20017;-75
2023/08/28 09:34:02;;;;;;;4.18;2.10;;;;;;;20.46;81.41;100214.47;5227745;28;20037;-72
2023/08/28 09:36:34;;;;;;;4.63;2.00;;;;;;;20.64;79.02;100220.09;5231474;28;20031;-76
2023/08/28 09:39:05;;;;;;;3.22;1.92;;;;;;;20.87;80.96;100227.88;5229547;28;20024;-76
2023/08/28 09:41:38;;;;;;;5.60;1.92;;;;;;;20.73;79.88;100228.13;5233323;28;20044;-76
2023/08/28 09:44:09;;;;;;;5.57;2.17;;;;;;;20.89;80.22;100229.41;5231580;28;20038;-76
2023/08/28 09:46:42;;;;;;;2.97;1.55;;;;;;;21.00;79.02;100221.41;5221817;28;20032;-76
2023/08/28 09:49:13;;;;;;;4.97;1.95;;;;;;;20.91;80.17;100226.66;5220235;28;20095;-76
2023/08/28 09:51:46;;;;;;;3.88;2.20;;;;;;;20.55;80.17;100220.81;5236960;28;20023;-76
2023/08/28 09:54:17;;;;;;;4.75;1.70;;;;;;;20.54;80.33;100222.66;5216531;28;20036;-77
2023/08/28 09:56:47;;;;;;;5.05;1.90;;;;;;;20.42;80.57;100226.31;5224457;28;20490;-76
2023/08/28 09:59:18;;;;;;;2.95;1.52;;;;;;;20.74;80.48;100225.34;5214491;28;20036;-76
2023/08/28 10:01:50;;;;;;;3.42;1.73;;;;;;;20.68;79.67;100235.63;5219611;28;20037;-72
2023/08/28 10:04:21;;;;;;;4.80;1.73;;;;;;;20.70;79.22;100239.84;5210279;28;20108;-76
2023/08/28 10:06:53;;;;;;;3.28;1.90;;;;;;;20.60;80.54;100238.06;5214755;28;20112;-74
2023/08/28 10:09:25;;;;;;;4.05;1.88;;;;;;;20.50;80.16;100236.31;5206852;28;20210;-76
2023/08/28 10:11:57;;;;;;;3.45;1.60;;;;;;;20.49;82.36;100230.13;5213545;28;20111;-76
2023/08/28 10:14:29;;;;;;;2.50;1.60;;;;;;;20.67;80.70;100236.59;5221126;28;20033;-76
2023/08/28 10:17:04;;;;;;;3.33;1.55;;;;;;;21.00;78.32;100233.84;5222604;28;20230;-75
2023/08/28 10:19:54;;;;;;;2.90;1.52;;;;;;;21.05;78.42;100223.69;5214377;28;20026;-75
2023/08/28 10:22:27;;;;;;;3.47;1.65;;;;;;;21.16;79.83;100223.59;5223740;28;20467;-76
2023/08/28 10:24:58;;;;;;;3.80;1.60;;;;;;;21.01;80.63;100227.53;5216257;28;20064;-76
2023/08/28 10:27:29;;;;;;;2.67;1.25;;;;;;;21.09;81.47;100220.63;5221632;28;20060;-76
2023/08/28 10:30:03;;;;;;;3.88;1.40;;;;;;;20.93;79.01;100224.69;5218716;28;20119;-76
2023/08/28 10:32:35;;;;;;;2.92;1.40;;;;;;;21.30;76.37;100215.31;5222963;28;20021;-76
2023/08/28 10:35:08;;;;;;;3.85;1.15;;;;;;;21.30;76.16;100200.22;5227364;28;20039;-75
2023/08/28 10:37:41;;;;;;;2.75;1.40;;;;;;;21.34;76.78;100192.78;5220760;28;20024;-76
2023/08/28 10:40:12;;;;;;;2.35;1.27;;;;;;;21.27;77.32;100194.31;5221774;28;20435;-76
2023/08/28 10:42:44;;;;;;;3.38;1.23;;;;;;;21.46;76.95;100194.41;5221357;28;20103;-75
2023/08/28 10:45:14;;;;;;;4.82;1.50;;;;;;;21.68;76.81;100189.78;5218443;28;20040;-76
2023/08/28 10:47:49;;;;;;;1.35;0.95;;;;;;;21.69;75.78;100188.81;5216812;28;20029;-76
2023/08/28 10:50:19;;;;;;;2.58;1.38;;;;;;;21.84;74.59;100192.78;5216689;28;20106;-76
2023/08/28 10:52:58;;;;;;;3.20;1.10;;;;;;;21.61;76.34;100190.41;5229115;28;20520;-75
2023/08/28 10:55:28;;;;;;;3.30;0.90;;;;;;;21.77;74.76;100194.28;5218029;28;20017;-76
2023/08/28 10:58:02;;;;;;;2.90;1.17;;;;;;;21.52;75.56;100192.06;5222110;28;20032;-76
2023/08/28 11:00:34;;;;;;;2.88;1.20;;;;;;;21.08;74.25;100210.13;5219999;28;20039;-76
2023/08/28 11:03:11;;;;;;;3.15;1.17;;;;;;;21.60;76.41;100215.34;5215221;28;20601;-75
2023/08/28 11:05:42;;;;;;;2.42;1.00;;;;;;;21.95;75.13;100207.81;5217063;28;20041;-76
2023/08/28 11:08:14;;;;;;;2.42;1.00;;;;;;;22.29;73.38;100204.69;5214141;28;20031;-76
2023/08/28 11:11:11;;;;;;;1.50;0.90;;;;;;;22.31;73.41;100204.56;5218435;28;20487;-76
2023/08/28 11:13:59;;;;;;;2.03;1.08;;;;;;;22.15;75.70;100214.88;5219937;28;20422;-76
2023/08/28 11:16:29;;;;;;;2.55;1.05;;;;;;;21.84;74.81;100214.09;5218761;28;20453;-75
2023/08/28 11:18:59;;;;;;;1.80;0.83;;;;;;;21.29;77.40;100238.41;5222302;28;20032;-75
2023/08/28 11:21:39;;;;;;;1.17;0.83;;;;;;;21.52;73.54;100236.41;5219384;28;20841;-75
2023/08/28 11:24:23;;;;;;;1.58;0.80;;;;;;;21.39;75.97;100252.59;5218139;28;20285;-74
2023/08/28 11:26:53;;;;;;;3.55;1.00;;;;;;;21.39;76.21;100259.75;5218902;28;20020;-75
2023/08/28 11:29:33;;;;;;;2.90;0.88;;;;;;;21.53;76.75;100264.69;5220845;28;20094;-76
2023/08/28 11:32:03;;;;;;;3.72;0.80;;;;;;;21.16;77.35;100267.00;5215731;28;20052;-76
2023/08/28 11:34:34;;;;;;;2.58;0.90;;;;;;;21.05;78.96;100266.22;5218698;28;20072;-76
2023/08/28 11:37:05;;;;;;;1.55;0.60;;;;;;;21.44;78.06;100252.22;5222232;28;20099;-75
2023/08/28 11:39:37;;;;;;;4.38;0.95;;;;;;;21.71;78.24;100252.53;5226931;28;20024;-76
2023/08/28 11:42:11;;;;;;;0.73;0.60;;;;;;;22.15;74.97;100245.03;5219405;28;20562;-76